Time;durP1;ratioP1;P1;durP2;ratioP2;P2;SDS_P1;SDS_P2;PMS_P1;PMS_P2;Temp;Humidity;BMP_temperature;BMP_pressure;BME280_temperature;BME280_humidity;BME280_pressure;Samples;Min_cycle;Max_cycle;Signal;HPM_P1;HPM_P2
2024/03/04 00:01:31;;;;;;;6.20;4.90;;;8.30;99.90;;;;;;5078868;28;20181;-81
2024/03/04 00:03:56;;;;;;;6.93;5.67;;;8.10;99.90;;;;;;5085977;28;20185;-82
2024/03/04 00:06:22;;;;;;;8.43;5.93;;;8.20;99.90;;;;;;5089605;28;20455;-83
2024/03/04 00:08:47;;;;;;;6.20;5.60;;;8.20;99.90;;;;;;5084305;28;20181;-83
2024/03/04 00:11:13;;;;;;;7.57;6.87;;;8.30;99.90;;;;;;5086290;28;20191;-83
2024/03/04 00:13:39;;;;;;;6.00;4.63;;;8.20;99.90;;;;;;5080295;28;20225;-82
2024/03/04 00:16:05;;;;;;;6.97;5.70;;;8.10;99.90;;;;;;5077815;28;20488;-82
2024/03/04 00:18:31;;;;;;;6.95;5.20;;;8.10;99.90;;;;;;5082844;28;20259;-81
2024/03/04 00:20:57;;;;;;;7.83;5.40;;;8.30;99.90;;;;;;5082477;28;20178;-82
2024/03/04 00:23:23;;;;;;;5.68;5.05;;;8.00;99.90;;;;;;5082456;28;20185;-82
2024/03/04 00:25:48;;;;;;;5.90;5.30;;;8.20;99.90;;;;;;5084313;28;20242;-83
2024/03/04 00:28:14;;;;;;;11.13;5.27;;;8.20;99.90;;;;;;5079019;28;20186;-83
2024/03/04 00:30:41;;;;;;;6.20;5.20;;;8.00;99.90;;;;;;5076607;28;20185;-82
2024/03/04 00:33:08;;;;;;;6.65;6.00;;;8.00;99.90;;;;;;5078911;28;20196;-82
2024/03/04 00:35:33;;;;;;;7.78;5.72;;;8.20;99.90;;;;;;5081412;28;20223;-82
2024/03/04 00:37:59;;;;;;;8.07;6.13;;;7.70;99.90;;;;;;5080174;28;20188;-82
2024/03/04 00:40:25;;;;;;;6.87;6.17;;;8.10;99.90;;;;;;5079909;28;20204;-82
2024/03/04 00:42:51;;;;;;;7.30;6.53;;;8.00;99.90;;;;;;5080360;28;20207;-82
2024/03/04 00:45:16;;;;;;;8.40;6.50;;;7.80;99.90;;;;;;5080152;28;20624;-82
2024/03/04 00:47:43;;;;;;;7.10;5.70;;;7.80;99.90;;;;;;5079855;28;20215;-84
2024/03/04 00:50:10;;;;;;;7.45;6.50;;;8.00;99.90;;;;;;5077964;28;20211;-82
2024/03/04 00:52:37;;;;;;;6.95;6.25;;;7.80;99.90;;;;;;5081127;28;20193;-82
2024/03/04 00:55:07;;;;;;;9.63;6.60;;;7.90;99.90;;;;;;5088363;28;20193;-83
2024/03/04 00:57:33;;;;;;;7.60;6.03;;;7.80;99.90;;;;;;5094779;28;20172;-82
2024/03/04 00:59:58;;;;;;;8.93;6.60;;;7.90;99.90;;;;;;5088242;28;20232;-82
2024/03/04 01:02:24;;;;;;;7.87;6.30;;;8.10;99.90;;;;;;5084709;28;20507;-83
2024/03/04 01:04:50;;;;;;;9.63;6.03;;;8.40;99.90;;;;;;5084702;28;20194;-83
2024/03/04 01:07:15;;;;;;;7.80;6.97;;;8.20;99.90;;;;;;5083103;28;20201;-82
2024/03/04 01:09:42;;;;;;;6.80;6.03;;;;;;;;;;5080666;28;20253;-83
2024/03/04 01:12:07;;;;;;;7.00;6.28;;;7.90;99.90;;;;;;5081753;28;20267;-82
2024/03/04 01:14:33;;;;;;;9.13;6.47;;;7.90;99.90;;;;;;5084410;28;20215;-82
2024/03/04 01:16:58;;;;;;;7.97;7.00;;;8.00;99.90;;;;;;5081983;28;20205;-83
2024/03/04 01:19:24;;;;;;;8.10;7.30;;;8.40;99.90;;;;;;5084645;28;20199;-83
2024/03/04 01:21:50;;;;;;;8.23;7.43;;;8.00;99.90;;;;;;5082600;28;20185;-83
2024/03/04 01:24:17;;;;;;;10.30;8.13;;;8.40;99.90;;;;;;5084087;28;20195;-83
2024/03/04 01:26:43;;;;;;;10.55;8.10;;;7.80;99.90;;;;;;5082660;28;20562;-83
2024/03/04 01:29:10;;;;;;;9.77;7.70;;;8.30;99.90;;;;;;5082260;28;20181;-83
2024/03/04 01:31:35;;;;;;;10.45;8.25;;;8.10;99.90;;;;;;5066086;28;20211;-83
2024/03/04 01:34:04;;;;;;;9.07;7.97;;;8.40;99.90;;;;;;5081702;28;20213;-83
2024/03/04 01:36:30;;;;;;;8.55;7.65;;;7.90;99.90;;;;;;5079224;28;20461;-83
2024/03/04 01:38:59;;;;;;;13.20;9.48;;;8.10;99.90;;;;;;5080577;28;20188;-83
2024/03/04 01:41:24;;;;;;;9.63;8.63;;;8.00;99.90;;;;;;5082221;28;20180;-83
2024/03/04 01:43:50;;;;;;;10.67;8.30;;;8.20;99.90;;;;;;5082005;28;20626;-83
2024/03/04 01:46:17;;;;;;;11.07;8.82;;;7.90;99.90;;;;;;5082554;28;20477;-82
2024/03/04 01:48:43;;;;;;;11.35;8.80;;;8.30;99.90;;;;;;5083717;28;20181;-83
2024/03/04 01:51:10;;;;;;;11.02;8.90;;;8.70;99.90;;;;;;5079651;28;20662;-83
2024/03/04 01:53:37;;;;;;;12.68;9.77;;;8.10;99.90;;;;;;5079040;28;20218;-83
2024/03/04 01:56:06;;;;;;;9.68;8.05;;;8.30;99.90;;;;;;5084142;28;20288;-83
2024/03/04 01:58:33;;;;;;;9.40;8.10;;;8.10;99.90;;;;;;5076644;28;20189;-80
2024/03/04 02:01:06;;;;;;;10.75;8.75;;;8.50;99.90;;;;;;5080765;28;20185;-81
2024/03/04 02:03:35;;;;;;;12.70;8.52;;;8.70;99.90;;;;;;5080207;28;20174;-84
2024/03/04 02:06:02;;;;;;;9.07;8.10;;;8.50;99.90;;;;;;5085020;28;20236;-83
2024/03/04 02:08:28;;;;;;;10.18;7.60;;;8.10;99.90;;;;;;5083261;28;20177;-82
2024/03/04 02:10:54;;;;;;;9.23;7.70;;;8.20;99.90;;;;;;5083116;28;20565;-83
2024/03/04 02:13:20;;;;;;;9.53;7.87;;;8.60;99.90;;;;;;5078282;28;20240;-83
2024/03/04 02:15:47;;;;;;;13.48;9.30;;;8.10;99.90;;;;;;5082458;28;20204;-83
2024/03/04 02:18:14;;;;;;;8.57;7.68;;;8.00;99.90;;;;;;5082334;28;20248;-83
2024/03/04 02:20:43;;;;;;;9.50;8.45;;;8.10;99.90;;;;;;5083055;28;20230;-83
2024/03/04 02:23:11;;;;;;;11.93;8.90;;;7.70;99.90;;;;;;5079889;28;20182;-83
2024/03/04 02:25:37;;;;;;;11.52;9.23;;;8.00;99.90;;;;;;5082590;28;20201;-83
2024/03/04 02:28:03;;;;;;;9.38;8.25;;;7.90;99.90;;;;;;5084103;28;20181;-82
2024/03/04 02:30:33;;;;;;;10.95;8.52;;;8.00;99.90;;;;;;5081861;28;20181;-83
2024/03/04 02:33:03;;;;;;;10.32;8.13;;;8.20;99.90;;;;;;5083680;28;20248;-83
2024/03/04 02:35:33;;;;;;;8.30;7.50;;;8.00;99.90;;;;;;5081009;28;20201;-83
2024/03/04 02:38:03;;;;;;;11.63;8.55;;;8.20;99.90;;;;;;5099420;28;20177;-83
2024/03/04 02:40:28;;;;;;;10.27;8.50;;;7.90;99.90;;;;;;5078992;28;20177;-83
2024/03/04 02:42:54;;;;;;;9.23;7.73;;;7.80;99.90;;;;;;5066938;28;20196;-82
2024/03/04 02:45:20;;;;;;;10.87;9.40;;;9.40;99.90;;;;;;5079910;28;20542;-82
2024/03/04 02:47:46;;;;;;;13.53;8.80;;;7.80;99.90;;;;;;5083303;28;20429;-82
2024/03/04 02:50:11;;;;;;;9.90;8.07;;;7.80;99.90;;;;;;5078727;28;20219;-83
2024/03/04 02:52:37;;;;;;;10.20;9.10;;;8.00;99.90;;;;;;5078477;28;20272;-82
2024/03/04 02:55:04;;;;;;;11.10;8.80;;;7.80;99.90;;;;;;5081792;28;20697;-83
2024/03/04 02:57:29;;;;;;;9.80;8.32;;;7.70;99.90;;;;;;5079404;28;20181;-82
2024/03/04 02:59:55;;;;;;;8.93;8.03;;;7.70;99.90;;;;;;5079914;28;20191;-83
2024/03/04 03:02:20;;;;;;;12.17;8.57;;;7.90;99.90;;;;;;5079912;28;20203;-83
2024/03/04 03:04:46;;;;;;;10.17;8.00;;;7.70;99.90;;;;;;5082676;28;20185;-83
2024/03/04 03:07:11;;;;;;;8.50;7.60;;;7.80;99.90;;;;;;5077648;28;20213;-83
2024/03/04 03:09:37;;;;;;;9.60;8.13;;;7.60;99.90;;;;;;5076336;28;20218;-83
2024/03/04 03:12:03;;;;;;;11.40;8.40;;;7.60;99.90;;;;;;5081850;28;20192;-83
2024/03/04 03:14:28;;;;;;;9.47;7.73;;;7.60;99.90;;;;;;5078505;28;20280;-83
2024/03/04 03:16:54;;;;;;;10.80;7.93;;;7.80;99.90;;;;;;5080023;28;20204;-82
2024/03/04 03:19:23;;;;;;;13.83;8.00;;;7.30;99.90;;;;;;5079720;28;20188;-82
2024/03/04 03:21:51;;;;;;;9.88;8.75;;;7.30;99.90;;;;;;5080213;28;20185;-82
2024/03/04 03:24:17;;;;;;;10.05;8.18;;;7.70;99.90;;;;;;5079733;28;20189;-82
2024/03/04 03:26:43;;;;;;;9.20;8.30;;;8.00;99.90;;;;;;5077075;28;20212;-83
2024/03/04 03:29:09;;;;;;;10.35;7.97;;;7.60;99.90;;;;;;5090427;28;20244;-82
2024/03/04 03:31:35;;;;;;;8.95;7.70;;;7.80;99.90;;;;;;5078541;28;20173;-83
2024/03/04 03:34:00;;;;;;;10.83;8.27;;;7.60;99.90;;;;;;5096199;28;20238;-83
2024/03/04 03:36:26;;;;;;;10.97;7.80;;;7.20;99.90;;;;;;5084313;28;20459;-82
2024/03/04 03:38:52;;;;;;;9.93;8.80;;;7.40;99.90;;;;;;5079432;28;20177;-83
2024/03/04 03:41:18;;;;;;;8.77;7.93;;;7.90;99.90;;;;;;5080432;28;20260;-83
2024/03/04 03:43:43;;;;;;;8.97;8.07;;;7.60;99.90;;;;;;5079385;28;20181;-83
2024/03/04 03:46:09;;;;;;;14.90;9.00;;;7.60;99.90;;;;;;5080692;28;20309;-82
2024/03/04 03:48:35;;;;;;;11.47;8.80;;;7.40;99.90;;;;;;5081511;28;20200;-83
2024/03/04 03:51:00;;;;;;;11.43;8.93;;;8.00;99.90;;;;;;5077134;28;20242;-83
2024/03/04 03:53:26;;;;;;;13.60;9.47;;;7.90;99.90;;;;;;5082611;28;20208;-83
2024/03/04 03:55:52;;;;;;;10.80;7.90;;;7.80;99.90;;;;;;5079852;28;20227;-83
2024/03/04 03:58:18;;;;;;;10.93;8.63;;;7.70;99.90;;;;;;5084383;28;20180;-83
2024/03/04 04:00:44;;;;;;;10.75;9.00;;;7.70;99.90;;;;;;5084350;28;20480;-84
2024/03/04 04:03:10;;;;;;;13.48;9.50;;;8.00;99.90;;;;;;5083400;28;20205;-83
2024/03/04 04:05:35;;;;;;;12.33;11.03;;;8.20;99.90;;;;;;5065277;28;20209;-84
2024/03/04 04:08:01;;;;;;;9.90;8.57;;;8.40;99.90;;;;;;5076152;28;20455;-82
2024/03/04 04:10:26;;;;;;;9.40;8.33;;;7.90;99.90;;;;;;5080335;28;20196;-82
2024/03/04 04:12:55;;;;;;;10.23;7.87;;;8.10;99.90;;;;;;5080960;28;20662;-83
2024/03/04 04:15:20;;;;;;;11.23;10.05;;;8.00;99.90;;;;;;5080831;28;20316;-83
2024/03/04 04:17:46;;;;;;;13.97;9.50;;;8.00;99.90;;;;;;5076871;28;20223;-83
2024/03/04 04:20:12;;;;;;;10.30;9.20;;;8.20;99.90;;;;;;5080216;28;20189;-83
2024/03/04 04:22:37;;;;;;;11.50;9.70;;;8.00;99.90;;;;;;5091894;28;20193;-81
2024/03/04 04:25:03;;;;;;;10.13;9.10;;;8.40;99.90;;;;;;5066492;28;20421;-84
2024/03/04 04:27:29;;;;;;;9.40;8.40;;;8.20;99.90;;;;;;5083590;28;20220;-83
2024/03/04 04:29:54;;;;;;;10.13;8.93;;;8.40;99.90;;;;;;5087842;28;20482;-82
2024/03/04 04:32:20;;;;;;;11.63;9.13;;;8.40;99.90;;;;;;5089586;28;20327;-83
2024/03/04 04:34:46;;;;;;;9.80;7.87;;;8.40;99.90;;;;;;5085974;28;20212;-82
2024/03/04 04:37:11;;;;;;;12.00;9.00;;;8.10;99.90;;;;;;5084275;28;20229;-82
2024/03/04 04:39:38;;;;;;;11.87;9.20;;;8.50;99.90;;;;;;5084006;28;20204;-82
2024/03/04 04:42:05;;;;;;;15.55;10.32;;;8.30;99.90;;;;;;5087258;28;20505;-82
2024/03/04 04:44:31;;;;;;;14.55;10.23;;;8.20;99.90;;;;;;5089338;28;20208;-82
2024/03/04 04:46:57;;;;;;;11.03;9.10;;;8.40;99.90;;;;;;5088723;28;20236;-81
2024/03/04 04:49:22;;;;;;;11.50;9.13;;;8.50;99.90;;;;;;5084921;28;20410;-81
2024/03/04 04:51:48;;;;;;;11.67;9.47;;;8.60;99.90;;;;;;5085726;28;20200;-82
2024/03/04 04:54:15;;;;;;;13.03;9.63;;;8.60;99.90;;;;;;5085438;28;20209;-82
2024/03/04 04:56:41;;;;;;;12.85;10.55;;;8.70;99.90;;;;;;5085920;28;20640;-82
2024/03/04 04:59:07;;;;;;;12.35;10.07;;;8.30;99.90;;;;;;5080812;28;20858;-82
2024/03/04 05:01:33;;;;;;;14.27;11.20;;;8.50;99.90;;;;;;5084982;28;20190;-82
2024/03/04 05:03:58;;;;;;;12.82;10.60;;;8.70;99.90;;;;;;5084252;28;20182;-83
2024/03/04 05:06:24;;;;;;;12.50;10.50;;;8.60;99.90;;;;;;5079835;28;20212;-83
2024/03/04 05:08:50;;;;;;;12.07;10.00;;;9.10;99.90;;;;;;5077797;28;20470;-82
2024/03/04 05:11:16;;;;;;;12.90;10.60;;;8.70;99.90;;;;;;5084675;28;20308;-83
2024/03/04 05:13:42;;;;;;;12.30;10.37;;;9.20;99.90;;;;;;5082991;28;20259;-82
2024/03/04 05:16:08;;;;;;;15.43;11.55;;;9.30;99.90;;;;;;5085375;28;20248;-83
2024/03/04 05:18:35;;;;;;;14.02;11.18;;;9.10;99.90;;;;;;5081018;28;20186;-82
2024/03/04 05:21:04;;;;;;;14.80;11.52;;;9.50;99.90;;;;;;5085252;28;20190;-83
2024/03/04 05:23:30;;;;;;;16.38;12.73;;;9.10;99.90;;;;;;5085611;28;20246;-82
2024/03/04 05:25:56;;;;;;;14.40;12.30;;;9.20;99.90;;;;;;5089496;28;20205;-83
2024/03/04 05:28:23;;;;;;;15.53;12.33;;;9.30;99.90;;;;;;5092302;28;20240;-83
2024/03/04 05:30:49;;;;;;;17.67;12.60;;;9.40;99.90;;;;;;5083911;28;20183;-82
2024/03/04 05:33:15;;;;;;;16.40;13.13;;;9.90;99.90;;;;;;5081388;28;20270;-82
2024/03/04 05:35:40;;;;;;;18.53;12.37;;;9.60;99.90;;;;;;5083258;28;20264;-82
2024/03/04 05:38:06;;;;;;;18.67;13.27;;;10.10;99.90;;;;;;5081784;28;20466;-83
2024/03/04 05:40:31;;;;;;;19.57;13.97;;;9.90;99.90;;;;;;5082614;28;20571;-83
2024/03/04 05:42:57;;;;;;;18.33;14.90;;;9.70;99.90;;;;;;5083692;28;20682;-82
2024/03/04 05:45:23;;;;;;;17.40;13.23;;;9.80;99.90;;;;;;5082206;28;20686;-83
2024/03/04 05:47:48;;;;;;;19.43;13.37;;;9.60;99.90;;;;;;5086184;28;20186;-83
2024/03/04 05:50:14;;;;;;;18.70;14.80;;;9.80;99.90;;;;;;5086283;28;20186;-83
2024/03/04 05:52:40;;;;;;;19.07;14.67;;;10.20;99.90;;;;;;5080496;28;20652;-82
2024/03/04 05:55:06;;;;;;;21.65;15.15;;;9.90;99.90;;;;;;5079020;28;20277;-82
2024/03/04 05:57:34;;;;;;;19.93;15.40;;;9.80;99.90;;;;;;5081986;28;20260;-82
2024/03/04 06:00:03;;;;;;;21.80;15.90;;;9.30;99.90;;;;;;5087731;28;20451;-83
2024/03/04 06:02:29;;;;;;;19.85;14.50;;;9.80;99.90;;;;;;5079428;28;20187;-83
2024/03/04 06:04:55;;;;;;;18.30;15.10;;;10.00;99.90;;;;;;5090898;28;20171;-83
2024/03/04 06:07:21;;;;;;;21.02;16.67;;;9.90;99.90;;;;;;5074739;28;20460;-82
2024/03/04 06:09:46;;;;;;;23.40;16.20;;;10.00;99.90;;;;;;5092686;28;20217;-83
2024/03/04 06:12:12;;;;;;;22.53;16.33;;;9.90;99.90;;;;;;5089023;28;20189;-83
2024/03/04 06:14:37;;;;;;;23.90;16.63;;;10.10;99.90;;;;;;5079607;28;20492;-83
2024/03/04 06:17:03;;;;;;;22.63;16.13;;;10.10;99.90;;;;;;5081843;28;20682;-82
2024/03/04 06:19:29;;;;;;;24.10;16.43;;;10.10;99.90;;;;;;5077072;28;20182;-82
2024/03/04 06:21:55;;;;;;;23.47;18.03;;;10.10;99.90;;;;;;5082206;28;20512;-83
2024/03/04 06:24:21;;;;;;;26.67;19.50;;;10.10;99.90;;;;;;5083040;28;20205;-84
2024/03/04 06:26:47;;;;;;;26.63;18.10;;;10.30;99.90;;;;;;5080994;28;20215;-83
2024/03/04 06:29:13;;;;;;;24.90;18.15;;;10.00;99.90;;;;;;5087013;28;20192;-83
2024/03/04 06:31:39;;;;;;;25.67;17.40;;;10.60;99.90;;;;;;5080077;28;20199;-83
2024/03/04 06:34:04;;;;;;;26.77;18.87;;;10.50;99.90;;;;;;5081697;28;20215;-83
2024/03/04 06:36:30;;;;;;;28.10;18.53;;;10.20;99.90;;;;;;5082889;28;20229;-84
2024/03/04 06:38:55;;;;;;;28.70;19.33;;;10.70;99.90;;;;;;5082922;28;20189;-84
2024/03/04 06:41:21;;;;;;;39.10;19.50;;;10.00;99.90;;;;;;5080313;28;20180;-83
2024/03/04 06:43:46;;;;;;;29.90;19.17;;;10.30;99.90;;;;;;5081142;28;20199;-83
2024/03/04 06:46:11;;;;;;;32.93;21.00;;;10.20;99.90;;;;;;5083612;28;20211;-83
2024/03/04 06:48:38;;;;;;;28.67;19.50;;;10.10;99.90;;;;;;5084176;28;20193;-83
2024/03/04 06:51:03;;;;;;;29.85;21.70;;;10.10;99.90;;;;;;5075545;28;20203;-87
2024/03/04 06:53:29;;;;;;;29.60;20.13;;;10.30;99.90;;;;;;5070116;28;20232;-86
2024/03/04 06:55:55;;;;;;;30.50;21.00;;;12.80;99.90;;;;;;5067313;28;20206;-87
2024/03/04 06:58:22;;;;;;;28.43;20.97;;;10.50;99.90;;;;;;5070091;28;20186;-85
2024/03/04 07:00:50;;;;;;;33.15;23.10;;;10.50;99.90;;;;;;5063359;28;20185;-85
2024/03/04 07:03:17;;;;;;;33.97;21.20;;;10.60;99.90;;;;;;5069949;28;20588;-87
2024/03/04 07:05:43;;;;;;;29.45;20.80;;;10.30;99.90;;;;;;5068686;28;20198;-87
2024/03/04 07:08:09;;;;;;;33.05;21.15;;;10.40;99.90;;;;;;5069128;28;20214;-86
2024/03/04 07:10:36;;;;;;;34.43;21.50;;;10.70;99.90;;;;;;5068194;28;20183;-85
2024/03/04 07:13:02;;;;;;;32.90;22.23;;;10.40;99.90;;;;;;5070356;28;20432;-86
2024/03/04 07:15:27;;;;;;;35.33;22.83;;;10.20;99.90;;;;;;5068052;28;20208;-85
2024/03/04 07:17:53;;;;;;;32.37;22.33;;;9.90;99.90;;;;;;5067813;28;20456;-86
2024/03/04 07:20:18;;;;;;;32.03;20.77;;;10.50;99.90;;;;;;5070928;28;20267;-86
2024/03/04 07:22:44;;;;;;;34.50;23.50;;;10.40;99.90;;;;;;5071660;28;20758;-85
2024/03/04 07:25:09;;;;;;;30.33;21.10;;;10.10;99.90;;;;;;5071295;28;20202;-90
2024/03/04 07:27:35;;;;;;;31.03;21.70;;;10.70;99.90;;;;;;5068951;28;20198;-85
2024/03/04 07:30:00;;;;;;;30.20;21.03;;;10.50;99.90;;;;;;5068568;28;20186;-85
2024/03/04 07:32:27;;;;;;;37.53;24.07;;;10.60;99.90;;;;;;5070378;28;20191;-85
2024/03/04 07:34:52;;;;;;;31.40;20.98;;;10.60;99.90;;;;;;5067963;28;20222;-87
2024/03/04 07:37:18;;;;;;;33.30;20.93;;;10.40;99.90;;;;;;5070073;28;20215;-86
2024/03/04 07:39:44;;;;;;;32.43;21.77;;;10.50;99.90;;;;;;5067548;28;20190;-86
2024/03/04 07:42:09;;;;;;;33.20;22.30;;;10.50;99.90;;;;;;5065183;28;20631;-87
2024/03/04 07:44:41;;;;;;;34.33;21.50;;;9.60;99.90;;;;;;5068222;28;20604;-86
2024/03/04 07:47:07;;;;;;;31.45;21.23;;;9.80;99.90;;;;;;5069034;28;20198;-86
2024/03/04 07:49:33;;;;;;;33.30;21.27;;;10.50;99.90;;;;;;5066102;28;20213;-87
2024/03/04 07:51:58;;;;;;;32.50;20.37;;;10.20;99.90;;;;;;5070116;28;20213;-85
2024/03/04 07:54:24;;;;;;;30.90;21.20;;;10.00;99.90;;;;;;5069800;28;20684;-86
2024/03/04 07:56:49;;;;;;;31.33;21.10;;;10.50;99.90;;;;;;5068411;28;20202;-86
2024/03/04 07:59:15;;;;;;;27.97;19.50;;;10.10;99.90;;;;;;5065682;28;20186;-86
2024/03/04 08:01:45;;;;;;;27.93;19.13;;;10.40;99.90;;;;;;5066421;28;20190;-86
2024/03/04 08:04:11;;;;;;;29.80;20.42;;;10.70;99.90;;;;;;5065667;28;20192;-86
2024/03/04 08:06:37;;;;;;;31.60;20.60;;;9.90;99.90;;;;;;5067207;28;20706;-87
2024/03/04 08:09:05;;;;;;;32.95;20.05;;;11.00;99.90;;;;;;5074238;28;20278;-86
2024/03/04 08:11:30;;;;;;;30.98;19.95;;;10.90;99.90;;;;;;5063311;28;20253;-85
2024/03/04 08:13:56;;;;;;;29.47;19.83;;;10.60;99.90;;;;;;5064233;28;20211;-86
2024/03/04 08:16:22;;;;;;;27.80;19.43;;;10.40;99.90;;;;;;5067807;28;20200;-86
2024/03/04 08:18:47;;;;;;;30.83;19.80;;;10.70;99.90;;;;;;5067155;28;20199;-86
2024/03/04 08:21:16;;;;;;;33.70;23.00;;;10.50;99.90;;;;;;5067533;28;20226;-86
2024/03/04 08:23:42;;;;;;;27.05;20.17;;;10.90;99.90;;;;;;5085321;28;20194;-86
2024/03/04 08:26:08;;;;;;;30.57;20.90;;;10.60;99.90;;;;;;5068466;28;20220;-86
2024/03/04 08:28:33;;;;;;;33.03;20.87;;;10.60;99.90;;;;;;5069039;28;20802;-86
2024/03/04 08:30:59;;;;;;;30.63;20.97;;;11.40;99.90;;;;;;5068153;28;20442;-86
2024/03/04 08:33:25;;;;;;;31.70;19.87;;;10.70;99.90;;;;;;5071149;28;20183;-86
2024/03/04 08:35:50;;;;;;;26.27;20.23;;;11.00;99.90;;;;;;5068597;28;20207;-87
2024/03/04 08:38:16;;;;;;;32.40;20.60;;;10.50;99.90;;;;;;5073121;28;20643;-86
2024/03/04 08:40:41;;;;;;;33.47;21.17;;;10.30;99.90;;;;;;5082425;28;20271;-86
2024/03/04 08:43:07;;;;;;;32.33;20.50;;;10.50;99.90;;;;;;5091191;28;20183;-85
2024/03/04 08:45:33;;;;;;;33.00;22.27;;;10.70;99.90;;;;;;5077286;28;20201;-87
2024/03/04 08:47:59;;;;;;;31.70;22.20;;;10.40;99.90;;;;;;5067083;28;20230;-86
2024/03/04 08:50:24;;;;;;;35.77;21.27;;;10.70;99.90;;;;;;5067655;28;20187;-86
2024/03/04 08:52:50;;;;;;;33.20;21.83;;;10.50;99.90;;;;;;5065063;28;20192;-86
2024/03/04 08:55:15;;;;;;;32.37;22.00;;;10.60;99.90;;;;;;5066428;28;20626;-86
2024/03/04 08:57:41;;;;;;;34.77;24.77;;;10.80;99.90;;;;;;5066414;28;20207;-87
2024/03/04 09:00:10;;;;;;;34.30;24.20;;;10.70;99.90;;;;;;5066660;28;20195;-87
2024/03/04 09:02:35;;;;;;;32.83;21.25;;;10.60;99.90;;;;;;5065834;28;20183;-86
2024/03/04 09:05:01;;;;;;;32.53;21.23;;;10.70;99.90;;;;;;5077641;28;20190;-87
2024/03/04 09:07:27;;;;;;;35.33;22.10;;;10.60;99.90;;;;;;5065130;28;20272;-87
2024/03/04 09:09:53;;;;;;;36.10;23.52;;;11.20;99.90;;;;;;5068459;28;20217;-87
2024/03/04 09:12:20;;;;;;;33.60;22.40;;;10.80;99.90;;;;;;5072110;28;20680;-86
2024/03/04 09:14:45;;;;;;;36.70;24.73;;;11.20;99.90;;;;;;5071683;28;20473;-86
2024/03/04 09:17:11;;;;;;;37.70;24.80;;;10.80;99.90;;;;;;5077170;28;20208;-87
2024/03/04 09:19:41;;;;;;;33.03;24.30;;;10.90;99.90;;;;;;5065750;28;20185;-87
2024/03/04 09:22:07;;;;;;;38.85;25.38;;;10.60;99.90;;;;;;5068836;28;20447;-85
2024/03/04 09:24:33;;;;;;;34.92;22.73;;;11.00;99.90;;;;;;5069683;28;20184;-86
2024/03/04 09:27:00;;;;;;;50.33;34.20;;;10.90;99.90;;;;;;5074404;28;20652;-86
2024/03/04 09:29:26;;;;;;;40.60;29.70;;;11.40;99.90;;;;;;5069253;28;20193;-87
2024/03/04 09:31:52;;;;;;;45.60;33.67;;;11.30;99.90;;;;;;5070404;28;20207;-86
2024/03/04 09:34:17;;;;;;;32.37;20.67;;;11.60;99.90;;;;;;5070708;28;20216;-88
2024/03/04 09:36:43;;;;;;;35.97;23.77;;;11.60;99.90;;;;;;5070947;28;20201;-86
2024/03/04 09:39:08;;;;;;;34.80;22.03;;;11.30;99.90;;;;;;5071499;28;20419;-87
2024/03/04 09:41:39;;;;;;;36.20;23.90;;;11.00;99.90;;;;;;5068707;28;20187;-87
2024/03/04 09:44:05;;;;;;;35.63;23.98;;;11.50;99.90;;;;;;5067134;28;20593;-86
2024/03/04 09:46:36;;;;;;;43.80;25.92;;;11.30;99.90;;;;;;5085426;28;20733;-86
2024/03/04 09:49:02;;;;;;;37.42;24.27;;;11.10;99.90;;;;;;5069341;28;20202;-86
2024/03/04 09:51:29;;;;;;;41.70;23.83;;;10.80;99.90;;;;;;5067578;28;20197;-87
2024/03/04 09:53:57;;;;;;;41.10;26.35;;;11.00;99.90;;;;;;5084605;28;20487;-85
2024/03/04 09:56:23;;;;;;;45.30;25.20;;;10.90;99.90;;;;;;5069211;28;20686;-86
2024/03/04 09:58:49;;;;;;;43.33;25.25;;;11.10;99.90;;;;;;5069665;28;20257;-87
2024/03/04 10:01:15;;;;;;;42.53;25.30;;;10.90;99.90;;;;;;5071404;28;20184;-87
2024/03/04 10:03:40;;;;;;;39.53;24.47;;;11.00;99.90;;;;;;5069096;28;20319;-87
2024/03/04 10:06:06;;;;;;;41.50;27.17;;;10.90;99.90;;;;;;5069723;28;21060;-85
2024/03/04 10:08:31;;;;;;;43.37;26.07;;;11.00;99.90;;;;;;5068780;28;20442;-85
2024/03/04 10:10:58;;;;;;;39.30;25.10;;;10.80;99.90;;;;;;5069979;28;20221;-86
2024/03/04 10:13:24;;;;;;;38.33;23.00;;;11.10;99.90;;;;;;5069438;28;20266;-87
2024/03/04 10:15:50;;;;;;;42.77;26.57;;;11.40;99.90;;;;;;5070905;28;20295;-87
2024/03/04 10:18:16;;;;;;;47.65;26.88;;;10.70;99.90;;;;;;5069884;28;20452;-86
2024/03/04 10:20:43;;;;;;;42.53;25.90;;;11.40;99.90;;;;;;5070942;28;20213;-87
2024/03/04 10:23:09;;;;;;;40.35;24.80;;;11.20;99.90;;;;;;5070099;28;20191;-86
2024/03/04 10:25:35;;;;;;;54.63;28.75;;;11.40;99.90;;;;;;5066580;28;20252;-87
2024/03/04 10:28:01;;;;;;;38.40;24.50;;;11.50;99.90;;;;;;5070901;28;20597;-85
2024/03/04 10:30:27;;;;;;;47.17;28.55;;;11.40;99.90;;;;;;5070423;28;20185;-87
2024/03/04 10:32:57;;;;;;;43.73;26.37;;;11.30;99.90;;;;;;5070372;28;20215;-86
2024/03/04 10:35:25;;;;;;;42.75;27.10;;;11.30;99.90;;;;;;5070854;28;20479;-86
2024/03/04 10:37:52;;;;;;;42.70;26.25;;;11.00;99.90;;;;;;5070864;28;20211;-86
2024/03/04 10:40:21;;;;;;;39.35;26.05;;;11.40;99.90;;;;;;5068898;28;20192;-89
2024/03/04 10:42:47;;;;;;;40.72;25.90;;;11.40;99.90;;;;;;5071960;28;20665;-87
2024/03/04 10:45:15;;;;;;;40.87;26.40;;;11.20;99.90;;;;;;5069005;28;20190;-87
2024/03/04 10:47:42;;;;;;;45.05;27.40;;;11.20;99.90;;;;;;5068001;28;21037;-87
2024/03/04 10:52:41;;;;;;;42.22;26.15;;;11.60;99.90;;;;;;5063179;28;20244;-87
2024/03/04 10:55:08;;;;;;;39.78;26.90;;;11.60;99.90;;;;;;5066638;28;20217;-86
2024/03/04 10:57:34;;;;;;;41.50;26.65;;;12.70;99.90;;;;;;5067819;28;20256;-86
2024/03/04 11:00:17;;;;;;;39.53;25.77;;;13.50;99.90;;;;;;5067460;28;20190;-86
2024/03/04 11:03:23;;;;;;;42.60;26.85;;;11.40;99.90;;;;;;5070467;28;20245;-88
2024/03/04 11:05:52;;;;;;;37.35;24.30;;;12.60;99.90;;;;;;5012619;28;20833;-86
2024/03/04 11:08:27;;;;;;;38.92;24.25;;;11.50;99.90;;;;;;5056995;28;20204;-87
2024/03/04 11:11:07;;;;;;;46.88;26.10;;;12.80;99.90;;;;;;5071187;28;20195;-87
2024/03/04 11:13:44;;;;;;;43.15;25.00;;;11.90;99.90;;;;;;5069521;28;20195;-88
2024/03/04 11:16:46;;;;;;;46.50;26.50;;;14.10;99.90;;;;;;5088337;28;20209;-86
2024/03/04 11:19:57;;;;;;;39.45;23.70;;;11.70;99.90;;;;;;5091002;28;20694;-86
2024/03/04 11:22:32;;;;;;;41.05;25.70;;;11.80;99.90;;;;;;5058061;28;20740;-87
2024/03/04 11:25:00;;;;;;;36.88;23.65;;;11.40;99.90;;;;;;5068747;28;20270;-88
2024/03/04 11:27:27;;;;;;;40.00;25.13;;;12.80;99.90;;;;;;5066105;28;20729;-86
2024/03/04 11:29:57;;;;;;;37.83;25.60;;;13.80;99.90;;;;;;5051760;28;20192;-87
2024/03/04 11:32:26;;;;;;;38.83;24.60;;;12.70;99.90;;;;;;5066241;28;20186;-87
2024/03/04 11:34:59;;;;;;;41.80;26.48;;;10.00;99.90;;;;;;5069595;28;20204;-86
2024/03/04 11:37:31;;;;;;;46.55;27.05;;;11.30;99.90;;;;;;5068220;28;20184;-85
2024/03/04 11:40:27;;;;;;;44.42;28.05;;;10.90;99.90;;;;;;5063772;28;20201;-86
2024/03/04 11:42:55;;;;;;;38.80;24.65;;;11.40;99.90;;;;;;5064582;28;20241;-86
2024/03/04 11:45:31;;;;;;;42.23;25.00;;;11.40;99.90;;;;;;5069986;28;20211;-86
2024/03/04 11:47:57;;;;;;;40.10;24.92;;;13.10;99.90;;;;;;5060797;28;20190;-86
2024/03/04 11:50:46;;;;;;;41.73;25.13;;;11.40;99.90;;;;;;5071283;28;20181;-87
2024/03/04 11:53:28;;;;;;;41.50;24.70;;;12.20;99.90;;;;;;5056419;28;20283;-86
2024/03/04 11:56:06;;;;;;;46.22;25.02;;;12.10;99.90;;;;;;5086554;28;20204;-86
2024/03/04 11:58:36;;;;;;;37.20;23.25;;;11.50;99.90;;;;;;5051677;28;20256;-87
2024/03/04 12:01:02;;;;;;;37.78;22.55;;;13.40;99.90;;;;;;5031667;28;20647;-88
2024/03/04 12:03:29;;;;;;;38.87;25.87;;;11.90;99.90;;;;;;5054098;28;20185;-87
2024/03/04 12:05:55;;;;;;;35.13;23.20;;;13.00;99.90;;;;;;5070637;28;20519;-87
2024/03/04 12:08:21;;;;;;;36.70;23.35;;;10.60;99.90;;;;;;5070194;28;20265;-88
2024/03/04 12:10:48;;;;;;;37.92;23.70;;;12.20;99.90;;;;;;5066874;28;20191;-87
2024/03/04 12:13:13;;;;;;;35.88;22.67;;;13.50;99.90;;;;;;5071746;28;20193;-87
2024/03/04 12:15:41;;;;;;;35.53;22.50;;;13.70;99.90;;;;;;5066894;28;20225;-86
2024/03/04 12:18:08;;;;;;;36.55;22.95;;;14.00;99.90;;;;;;5071538;28;20188;-86
2024/03/04 12:20:33;;;;;;;37.33;22.80;;;12.80;99.90;;;;;;5054869;28;20209;-86
2024/03/04 12:23:07;;;;;;;37.90;21.87;;;11.50;99.90;;;;;;5072860;28;20669;-85
2024/03/04 12:25:38;;;;;;;36.20;23.10;;;12.00;99.90;;;;;;5075456;28;20200;-86
2024/03/04 12:28:05;;;;;;;36.20;23.45;;;11.80;99.90;;;;;;5071251;28;20212;-85
2024/03/04 12:30:40;;;;;;;34.70;21.27;;;11.70;99.90;;;;;;5063518;28;20195;-87
2024/03/04 12:33:08;;;;;;;36.97;22.60;;;11.90;99.90;;;;;;5067861;28;20232;-87
2024/03/04 12:35:34;;;;;;;32.80;21.67;;;12.10;99.90;;;;;;5070882;28;20307;-87
2024/03/04 12:38:02;;;;;;;35.03;23.20;;;11.90;99.90;;;;;;5069522;28;20235;-87
2024/03/04 12:40:28;;;;;;;37.00;22.35;;;12.00;99.90;;;;;;5064960;28;20221;-88